Time;durP1;ratioP1;P1;durP2;ratioP2;P2;SDS_P1;SDS_P2;PMS_P1;PMS_P2;Temp;Humidity;BMP_temperature;BMP_pressure;BME280_temperature;BME280_humidity;BME280_pressure;Samples;Min_cycle;Max_cycle;Signal;HPM_P1;HPM_P2
2022/02/20 00:02:07;;;;;;;0.50;0.50;;;4.50;99.90;;;;;;5022000;28;20202;-85
2022/02/20 00:04:33;;;;;;;0.47;0.47;;;4.50;99.90;;;;;;5013889;28;20652;-85
2022/02/20 00:06:59;;;;;;;0.30;0.30;;;4.50;99.90;;;;;;5025408;28;20223;-85
2022/02/20 00:09:25;;;;;;;0.30;0.30;;;4.60;99.90;;;;;;5008772;28;20226;-84
2022/02/20 00:11:50;;;;;;;0.20;0.20;;;4.70;99.90;;;;;;5025750;28;20245;-85
2022/02/20 00:14:16;;;;;;;0.40;0.40;;;4.60;99.90;;;;;;4999771;28;20206;-84
2022/02/20 00:16:42;;;;;;;0.40;0.40;;;4.60;99.90;;;;;;5014715;28;20199;-86
2022/02/20 00:19:08;;;;;;;0.30;0.30;;;4.60;99.90;;;;;;5022640;28;20688;-85
2022/02/20 00:21:34;;;;;;;1.07;0.60;;;4.60;99.90;;;;;;5022127;28;20222;-84
2022/02/20 00:23:59;;;;;;;0.30;0.30;;;4.70;99.90;;;;;;5021086;28;20305;-85
2022/02/20 00:26:25;;;;;;;0.20;0.20;;;4.70;99.90;;;;;;5015595;28;20219;-84
2022/02/20 00:28:51;;;;;;;0.30;0.30;;;4.80;99.90;;;;;;5022372;28;20660;-86
2022/02/20 00:31:17;;;;;;;0.20;0.20;;;4.80;99.90;;;;;;5023387;28;20226;-85
2022/02/20 00:33:42;;;;;;;0.40;0.40;;;4.70;99.90;;;;;;5030073;28;20253;-83
2022/02/20 00:36:08;;;;;;;0.20;0.20;;;4.70;99.90;;;;;;5006774;28;20222;-83
2022/02/20 00:38:34;;;;;;;0.17;0.17;;;4.70;99.90;;;;;;5024213;28;20226;-85
2022/02/20 00:41:00;;;;;;;0.27;0.27;;;4.70;99.90;;;;;;5024186;28;20202;-85
2022/02/20 00:43:26;;;;;;;0.30;0.30;;;4.60;99.90;;;;;;5006888;28;20692;-86
2022/02/20 00:45:51;;;;;;;0.20;0.20;;;4.70;99.90;;;;;;4998330;28;20242;-84
2022/02/20 00:48:18;;;;;;;0.20;0.20;;;4.60;99.90;;;;;;5021212;28;20284;-85
2022/02/20 00:50:45;;;;;;;0.30;0.30;;;4.60;99.90;;;;;;5006944;28;20218;-86
2022/02/20 00:53:11;;;;;;;0.30;0.30;;;4.70;99.90;;;;;;5023717;28;20218;-84
2022/02/20 00:55:37;;;;;;;0.40;0.40;;;4.80;99.90;;;;;;5023097;28;20190;-84
2022/02/20 00:58:02;;;;;;;0.20;0.20;;;4.80;99.90;;;;;;5032325;28;20694;-84
2022/02/20 01:00:28;;;;;;;0.20;0.20;;;4.80;99.90;;;;;;5000295;28;20305;-85
2022/02/20 01:02:54;;;;;;;0.30;0.30;;;4.90;99.90;;;;;;5025385;28;20976;-85
2022/02/20 01:05:20;;;;;;;0.30;0.30;;;4.80;99.90;;;;;;5006830;28;20187;-85
2022/02/20 01:07:46;;;;;;;0.80;0.30;;;4.90;99.90;;;;;;5024330;28;20423;-84
2022/02/20 01:10:14;;;;;;;0.43;0.43;;;4.90;99.90;;;;;;5023526;28;20621;-84
2022/02/20 01:12:40;;;;;;;0.20;0.20;;;4.90;99.90;;;;;;5024445;28;20317;-84
2022/02/20 01:15:07;;;;;;;0.20;0.20;;;4.90;99.90;;;;;;5023226;28;20297;-85
2022/02/20 01:17:33;;;;;;;0.30;0.30;;;4.80;99.90;;;;;;5000522;28;20223;-86
2022/02/20 01:19:59;;;;;;;0.30;0.30;;;4.80;99.90;;;;;;4991305;28;20194;-85
2022/02/20 01:22:25;;;;;;;0.20;0.20;;;4.70;99.90;;;;;;4998921;28;20246;-84
2022/02/20 01:24:51;;;;;;;0.20;0.20;;;4.70;99.90;;;;;;5017098;28;20214;-85
2022/02/20 01:27:17;;;;;;;0.30;0.30;;;4.70;99.90;;;;;;5023238;28;20273;-84
2022/02/20 01:29:42;;;;;;;0.30;0.30;;;4.80;99.90;;;;;;5023322;28;20222;-84
2022/02/20 01:32:08;;;;;;;1.07;0.50;;;4.80;99.90;;;;;;5000102;28;20230;-86
2022/02/20 01:34:34;;;;;;;1.70;0.57;;;4.80;99.90;;;;;;5038466;28;20193;-84
2022/02/20 01:37:00;;;;;;;1.43;0.77;;;4.80;99.90;;;;;;5063851;28;20778;-82
2022/02/20 01:39:26;;;;;;;0.30;0.30;;;4.80;99.90;;;;;;5063390;28;20225;-85
2022/02/20 01:41:52;;;;;;;0.30;0.30;;;4.80;99.90;;;;;;5037549;28;20547;-84
2022/02/20 01:44:19;;;;;;;0.20;0.20;;;4.80;99.90;;;;;;5063907;28;20477;-82
2022/02/20 01:46:47;;;;;;;0.30;0.30;;;4.80;99.90;;;;;;5053481;28;20185;-86
2022/02/20 01:49:18;;;;;;;0.30;0.30;;;4.80;99.90;;;;;;5063631;28;20208;-85
2022/02/20 01:51:43;;;;;;;0.20;0.20;;;4.80;99.90;;;;;;5062936;28;20238;-86
2022/02/20 01:54:09;;;;;;;0.20;0.20;;;4.80;99.90;;;;;;5054894;28;20327;-84
2022/02/20 01:56:36;;;;;;;0.30;0.30;;;4.70;99.90;;;;;;5039026;28;20717;-86
2022/02/20 01:59:03;;;;;;;0.23;0.23;;;4.80;99.90;;;;;;5054646;28;20213;-86
2022/02/20 02:01:29;;;;;;;0.33;0.33;;;4.70;99.90;;;;;;5018669;28;20217;-85
2022/02/20 02:03:54;;;;;;;0.23;0.23;;;4.80;99.90;;;;;;5036996;28;20227;-85
2022/02/20 02:06:21;;;;;;;0.30;0.30;;;4.80;99.90;;;;;;5056533;28;20221;-86
2022/02/20 02:08:47;;;;;;;0.30;0.30;;;4.90;99.90;;;;;;5057553;28;20224;-85
2022/02/20 02:11:13;;;;;;;0.20;0.20;;;4.90;99.90;;;;;;5056546;28;20196;-85
2022/02/20 02:13:40;;;;;;;0.60;0.60;;;4.90;99.90;;;;;;5056856;28;20319;-85
2022/02/20 02:16:05;;;;;;;0.63;0.63;;;4.90;99.90;;;;;;5033425;28;20209;-85
2022/02/20 02:18:32;;;;;;;0.37;0.37;;;4.90;99.90;;;;;;5057209;28;20830;-84
2022/02/20 02:20:58;;;;;;;0.37;0.37;;;4.80;99.90;;;;;;5058804;28;20217;-84
2022/02/20 02:23:24;;;;;;;0.30;0.30;;;4.90;99.90;;;;;;5067728;28;20221;-86
2022/02/20 02:25:51;;;;;;;0.30;0.30;;;4.80;99.90;;;;;;5055627;28;20181;-84
2022/02/20 02:28:18;;;;;;;0.30;0.30;;;4.90;99.90;;;;;;5055639;28;20220;-82
2022/02/20 02:30:46;;;;;;;0.50;0.50;;;4.80;99.90;;;;;;5066429;28;20225;-82
2022/02/20 02:33:12;;;;;;;0.47;0.47;;;4.80;99.90;;;;;;5055663;28;20229;-85
2022/02/20 02:35:37;;;;;;;0.50;0.40;;;4.80;99.90;;;;;;5066679;28;20221;-84
2022/02/20 02:38:06;;;;;;;0.60;0.60;;;4.70;99.90;;;;;;5064758;28;20724;-83
2022/02/20 02:40:33;;;;;;;0.40;0.40;;;4.80;99.90;;;;;;5065630;28;20280;-84
2022/02/20 02:42:59;;;;;;;0.40;0.40;;;4.70;99.90;;;;;;5055501;28;20216;-84
2022/02/20 02:45:26;;;;;;;0.97;0.97;;;4.80;99.90;;;;;;5056493;28;20221;-84
2022/02/20 02:47:53;;;;;;;0.83;0.80;;;4.80;99.90;;;;;;5060404;28;20209;-83
2022/02/20 02:50:19;;;;;;;0.40;0.40;;;4.80;99.90;;;;;;5054573;28;20246;-83
2022/02/20 02:52:45;;;;;;;0.30;0.30;;;4.80;99.90;;;;;;5057371;28;20220;-84
2022/02/20 02:55:11;;;;;;;0.97;0.50;;;4.70;99.90;;;;;;5066609;28;20221;-84
2022/02/20 02:57:36;;;;;;;0.67;0.53;;;4.70;99.90;;;;;;5054540;28;20232;-84
2022/02/20 03:00:03;;;;;;;0.40;0.40;;;4.60;99.90;;;;;;5022780;28;20217;-82
2022/02/20 03:02:29;;;;;;;0.63;0.63;;;4.60;99.90;;;;;;5057749;28;20972;-84
2022/02/20 03:04:55;;;;;;;1.23;0.53;;;4.60;99.90;;;;;;5056237;28;20178;-84
2022/02/20 03:07:21;;;;;;;3.00;0.40;;;4.50;99.90;;;;;;5040413;28;20214;-83
2022/02/20 03:09:47;;;;;;;0.30;0.30;;;4.50;99.90;;;;;;5066635;28;20213;-83
2022/02/20 03:12:12;;;;;;;0.40;0.40;;;4.50;99.90;;;;;;5055956;28;20690;-84
2022/02/20 03:14:38;;;;;;;0.37;0.37;;;4.50;99.90;;;;;;5031632;28;20233;-83
2022/02/20 03:17:04;;;;;;;0.53;0.50;;;4.40;99.90;;;;;;5054265;28;20601;-84
2022/02/20 03:19:30;;;;;;;0.50;0.50;;;4.40;99.90;;;;;;5055792;28;20220;-84
2022/02/20 03:21:55;;;;;;;0.40;0.40;;;4.40;99.90;;;;;;5055789;28;20229;-83
2022/02/20 03:24:21;;;;;;;0.40;0.40;;;4.40;99.90;;;;;;5022693;28;20233;-84
2022/02/20 03:26:47;;;;;;;0.83;0.83;;;4.40;99.90;;;;;;5065531;28;20221;-84
2022/02/20 03:29:13;;;;;;;0.60;0.60;;;4.40;99.90;;;;;;5032510;28;20189;-81
2022/02/20 03:31:38;;;;;;;9.17;0.60;;;4.40;99.90;;;;;;5066506;28;20204;-85
2022/02/20 03:34:04;;;;;;;0.93;0.93;;;4.50;99.90;;;;;;5041039;28;20566;-85
2022/02/20 03:36:32;;;;;;;0.40;0.40;;;4.40;99.90;;;;;;5038623;28;20225;-85
2022/02/20 03:38:58;;;;;;;0.60;0.60;;;4.40;99.90;;;;;;5040709;28;20232;-85
2022/02/20 03:41:23;;;;;;;0.73;0.73;;;4.50;99.90;;;;;;5065476;28;20225;-83
2022/02/20 03:43:49;;;;;;;1.53;0.80;;;4.50;99.90;;;;;;5052518;28;20714;-83
2022/02/20 03:46:15;;;;;;;0.30;0.30;;;4.40;99.90;;;;;;5061710;28;20217;-83
2022/02/20 03:48:41;;;;;;;0.40;0.40;;;4.50;99.90;;;;;;5064242;28;20275;-85
2022/02/20 03:51:06;;;;;;;0.30;0.30;;;4.50;99.90;;;;;;5053943;28;20217;-84
2022/02/20 03:53:32;;;;;;;0.57;0.57;;;4.50;99.90;;;;;;5053945;28;20495;-82
2022/02/20 03:55:58;;;;;;;0.50;0.50;;;4.50;99.90;;;;;;5040630;28;20224;-83
2022/02/20 03:58:23;;;;;;;0.50;0.50;;;4.50;99.90;;;;;;5039455;28;20241;-82
2022/02/20 04:00:49;;;;;;;0.87;0.87;;;4.50;99.90;;;;;;5051697;28;20674;-84
2022/02/20 04:03:15;;;;;;;9.83;1.93;;;4.50;99.90;;;;;;5052453;28;20232;-83
2022/02/20 04:05:41;;;;;;;0.50;0.50;;;4.50;99.90;;;;;;5051214;28;20217;-83
2022/02/20 04:08:06;;;;;;;0.53;0.40;;;4.50;99.90;;;;;;5055139;28;20190;-84
2022/02/20 04:10:33;;;;;;;0.67;0.60;;;4.50;99.90;;;;;;5030727;28;20203;-84
2022/02/20 04:12:58;;;;;;;0.63;0.63;;;4.50;99.90;;;;;;5021132;28;20232;-84
2022/02/20 04:15:24;;;;;;;0.50;0.50;;;4.50;99.90;;;;;;5036877;28;20225;-84
2022/02/20 04:17:50;;;;;;;0.83;0.83;;;4.50;99.90;;;;;;5053798;28;20221;-82
2022/02/20 04:20:18;;;;;;;0.43;0.43;;;4.50;99.90;;;;;;5051869;28;20289;-85
2022/02/20 04:22:45;;;;;;;0.87;0.87;;;4.60;99.90;;;;;;5054204;28;20559;-84
2022/02/20 04:25:12;;;;;;;0.63;0.50;;;4.50;99.90;;;;;;5054818;28;20221;-83
2022/02/20 04:27:39;;;;;;;0.30;0.30;;;4.50;99.90;;;;;;5055877;28;20248;-84
2022/02/20 04:30:06;;;;;;;0.73;0.73;;;4.60;99.90;;;;;;5064342;28;20232;-84
2022/02/20 04:32:33;;;;;;;13.23;0.70;;;4.70;99.90;;;;;;5063370;28;20272;-84
2022/02/20 04:34:59;;;;;;;0.60;0.60;;;4.60;99.90;;;;;;5055873;28;20200;-83
2022/02/20 04:37:25;;;;;;;0.50;0.50;;;4.70;99.90;;;;;;5053090;28;20209;-83
2022/02/20 04:39:51;;;;;;;1.13;0.87;;;4.70;99.90;;;;;;5055711;28;20224;-83
2022/02/20 04:42:17;;;;;;;0.63;0.60;;;4.70;99.90;;;;;;5053104;28;21124;-83
2022/02/20 04:44:43;;;;;;;0.83;0.83;;;4.80;99.90;;;;;;5052558;28;20225;-83
2022/02/20 04:47:08;;;;;;;0.50;0.50;;;4.80;99.90;;;;;;5047177;28;20930;-83
2022/02/20 04:49:34;;;;;;;7.97;0.93;;;4.90;99.90;;;;;;5056049;28;20193;-83
2022/02/20 04:52:00;;;;;;;1.13;0.67;;;4.90;99.90;;;;;;5051427;28;20232;-82
2022/02/20 04:54:26;;;;;;;0.70;0.70;;;4.90;99.90;;;;;;5034931;28;20233;-83
2022/02/20 04:56:51;;;;;;;0.63;0.60;;;4.90;99.90;;;;;;5032661;28;20701;-83
2022/02/20 04:59:17;;;;;;;0.77;0.77;;;4.90;99.90;;;;;;5028120;28;20205;-84
2022/02/20 05:01:43;;;;;;;0.43;0.30;;;5.00;99.90;;;;;;5035125;28;20197;-83
2022/02/20 05:04:09;;;;;;;1.00;0.77;;;5.00;99.90;;;;;;5052896;28;20747;-83
2022/02/20 05:06:35;;;;;;;0.80;0.80;;;5.10;99.90;;;;;;5069475;28;21130;-85
2022/02/20 05:09:02;;;;;;;0.50;0.50;;;5.10;99.90;;;;;;5036391;28;20213;-84
2022/02/20 05:11:28;;;;;;;1.97;1.87;;;5.10;99.90;;;;;;5063253;28;20318;-84
2022/02/20 05:13:55;;;;;;;0.37;0.37;;;5.20;99.90;;;;;;5055911;28;20608;-85
2022/02/20 05:16:26;;;;;;;17.43;0.77;;;5.20;99.90;;;;;;5053796;28;20283;-84
2022/02/20 05:18:52;;;;;;;0.77;0.33;;;5.20;99.90;;;;;;5055219;28;20221;-85
2022/02/20 05:21:18;;;;;;;0.57;0.57;;;5.20;99.90;;;;;;5035258;28;20221;-84
2022/02/20 05:23:44;;;;;;;0.47;0.47;;;5.20;99.90;;;;;;5063533;28;20229;-84
2022/02/20 05:26:11;;;;;;;0.50;0.50;;;5.20;99.90;;;;;;5053384;28;20349;-85
2022/02/20 05:28:37;;;;;;;0.73;0.73;;;5.30;99.90;;;;;;5063928;28;20306;-85
2022/02/20 05:31:03;;;;;;;0.17;0.17;;;5.30;99.90;;;;;;5071605;28;20340;-86
2022/02/20 05:33:28;;;;;;;0.50;0.50;;;5.40;99.90;;;;;;5051951;28;20233;-86
2022/02/20 05:35:54;;;;;;;0.40;0.40;;;5.30;99.90;;;;;;5053607;28;20228;-82
2022/02/20 05:38:20;;;;;;;0.40;0.40;;;5.30;99.90;;;;;;5063426;28;20198;-83
2022/02/20 05:40:45;;;;;;;0.40;0.40;;;5.30;99.90;;;;;;5053999;28;20623;-83
2022/02/20 05:43:11;;;;;;;0.70;0.70;;;5.40;99.90;;;;;;5054211;28;20221;-86
2022/02/20 05:45:37;;;;;;;0.63;0.60;;;5.40;99.90;;;;;;5035418;28;20578;-84
2022/02/20 05:48:03;;;;;;;1.37;0.60;;;5.30;99.90;;;;;;5053168;28;20263;-83
2022/02/20 05:50:29;;;;;;;1.20;0.70;;;5.40;99.90;;;;;;5053672;28;20815;-83
2022/02/20 05:52:55;;;;;;;0.50;0.50;;;5.40;99.90;;;;;;5063587;28;20217;-82
2022/02/20 05:55:21;;;;;;;2.10;0.50;;;5.30;99.90;;;;;;5063680;28;20227;-84
2022/02/20 05:57:53;;;;;;;0.63;0.63;;;5.40;99.90;;;;;;5063415;28;20264;-85
2022/02/20 06:00:24;;;;;;;0.50;0.50;;;5.30;99.90;;;;;;5053553;28;20225;-86
2022/02/20 06:02:50;;;;;;;0.60;0.60;;;5.40;99.90;;;;;;5063801;28;20224;-82
2022/02/20 06:05:15;;;;;;;0.30;0.30;;;5.30;99.90;;;;;;5053408;28;20193;-83
2022/02/20 06:07:41;;;;;;;0.30;0.30;;;5.30;99.90;;;;;;5053727;28;21091;-83
2022/02/20 06:10:08;;;;;;;0.40;0.40;;;5.30;99.90;;;;;;5053094;28;20983;-84
2022/02/20 06:12:34;;;;;;;0.30;0.30;;;5.30;99.90;;;;;;5060156;28;20283;-84
2022/02/20 06:15:00;;;;;;;0.70;0.70;;;5.30;99.90;;;;;;5051618;28;20279;-84
2022/02/20 06:17:27;;;;;;;0.40;0.40;;;5.40;99.90;;;;;;5034597;28;20217;-85
2022/02/20 06:19:53;;;;;;;1.50;0.60;;;5.30;99.90;;;;;;5055367;28;20193;-83
2022/02/20 06:22:18;;;;;;;0.87;0.80;;;5.20;99.90;;;;;;5052608;28;20231;-83
2022/02/20 06:24:44;;;;;;;0.60;0.60;;;5.20;99.90;;;;;;5052187;28;20217;-85
2022/02/20 06:27:10;;;;;;;1.60;1.50;;;5.20;99.90;;;;;;5052323;28;20209;-83
2022/02/20 06:29:36;;;;;;;0.60;0.40;;;5.30;99.90;;;;;;5063264;28;20221;-85
2022/02/20 06:32:03;;;;;;;1.10;0.80;;;5.20;99.90;;;;;;5054885;28;20219;-85
2022/02/20 06:34:29;;;;;;;10.50;0.63;;;5.20;99.90;;;;;;5064501;28;20241;-83
2022/02/20 06:36:55;;;;;;;0.37;0.37;;;5.20;99.90;;;;;;5053974;28;20287;-86
2022/02/20 06:39:21;;;;;;;0.37;0.37;;;5.20;99.90;;;;;;5019940;28;21187;-82
2022/02/20 06:41:47;;;;;;;1.67;1.63;;;5.20;99.90;;;;;;5050532;28;20240;-85
2022/02/20 06:44:13;;;;;;;1.07;0.63;;;5.20;99.90;;;;;;5052092;28;20667;-83
2022/02/20 06:46:39;;;;;;;0.80;0.80;;;5.20;99.90;;;;;;5045957;28;20197;-84
2022/02/20 06:49:07;;;;;;;0.50;0.50;;;5.20;99.90;;;;;;5062476;28;20288;-83
2022/02/20 06:51:36;;;;;;;3.93;1.27;;;5.20;99.90;;;;;;5055125;28;20208;-83
2022/02/20 06:54:03;;;;;;;0.40;0.40;;;5.20;99.90;;;;;;5055460;28;20253;-83
2022/02/20 06:56:32;;;;;;;0.30;0.30;;;5.20;99.90;;;;;;5040320;28;20225;-83
2022/02/20 06:58:59;;;;;;;2.40;1.07;;;5.20;99.90;;;;;;5056575;28;20887;-83
2022/02/20 07:01:24;;;;;;;0.40;0.40;;;5.20;99.90;;;;;;5057052;28;20213;-83
2022/02/20 07:03:50;;;;;;;0.87;0.87;;;5.30;99.90;;;;;;5039716;28;20228;-83
2022/02/20 07:06:16;;;;;;;1.30;0.60;;;5.20;99.90;;;;;;5072169;28;20221;-83
2022/02/20 07:08:42;;;;;;;0.60;0.50;;;5.20;99.90;;;;;;5057820;28;20223;-84
2022/02/20 07:11:08;;;;;;;0.67;0.67;;;5.30;99.90;;;;;;5037644;28;20195;-81
2022/02/20 07:13:35;;;;;;;1.80;1.70;;;5.30;99.90;;;;;;5037359;28;20226;-84
2022/02/20 07:16:01;;;;;;;2.43;0.80;;;5.40;99.90;;;;;;5055621;28;21108;-83
2022/02/20 07:18:27;;;;;;;0.63;0.63;;;5.50;99.90;;;;;;5040391;28;20260;-83
2022/02/20 07:20:53;;;;;;;0.63;0.63;;;5.50;99.90;;;;;;5055494;28;20232;-85
2022/02/20 07:23:18;;;;;;;1.23;1.23;;;5.50;99.90;;;;;;5040024;28;20211;-86
2022/02/20 07:25:44;;;;;;;1.10;1.10;;;5.60;99.90;;;;;;5066888;28;20192;-84
2022/02/20 07:28:10;;;;;;;2.33;1.20;;;5.60;99.90;;;;;;5043352;28;20381;-83
2022/02/20 07:30:36;;;;;;;2.80;1.57;;;5.70;99.90;;;;;;5038534;28;20217;-84
2022/02/20 07:33:08;;;;;;;1.63;1.53;;;5.70;99.90;;;;;;5054129;28;20685;-83
2022/02/20 07:35:38;;;;;;;1.50;1.40;;;5.80;99.90;;;;;;5054951;28;20217;-83
2022/02/20 07:38:05;;;;;;;2.20;1.43;;;5.80;99.90;;;;;;5066674;28;20204;-83
2022/02/20 07:40:31;;;;;;;0.63;0.63;;;5.90;99.90;;;;;;5039320;28;21033;-83
2022/02/20 07:42:57;;;;;;;1.33;1.33;;;6.00;99.90;;;;;;5054404;28;20227;-84
2022/02/20 07:45:24;;;;;;;1.93;1.53;;;6.20;99.90;;;;;;5039797;28;20213;-85
2022/02/20 07:47:58;;;;;;;1.13;1.03;;;6.30;99.90;;;;;;5039642;28;20217;-86
2022/02/20 07:50:27;;;;;;;1.77;1.67;;;6.30;99.90;;;;;;5056007;28;20217;-83
2022/02/20 07:52:53;;;;;;;1.37;1.27;;;6.40;99.90;;;;;;5053816;28;20213;-86
2022/02/20 07:55:19;;;;;;;2.53;2.33;;;6.60;99.90;;;;;;5066093;28;20228;-84
2022/02/20 07:57:46;;;;;;;2.13;1.93;;;6.70;99.90;;;;;;5054756;28;20296;-84
2022/02/20 08:00:14;;;;;;;1.30;1.23;;;6.70;99.90;;;;;;5065260;28;20209;-81
2022/02/20 08:02:41;;;;;;;1.37;1.27;;;6.80;99.90;;;;;;5038003;28;20247;-85
2022/02/20 08:05:07;;;;;;;2.47;2.27;;;6.90;99.90;;;;;;5051561;28;20181;-84
2022/02/20 08:07:33;;;;;;;1.93;1.50;;;6.90;99.90;;;;;;5049336;28;20190;-83
2022/02/20 08:09:59;;;;;;;1.80;1.70;;;7.00;99.90;;;;;;5053740;28;20224;-82
2022/02/20 08:12:25;;;;;;;2.97;2.37;;;7.10;99.90;;;;;;5057769;28;20221;-83
2022/02/20 08:14:51;;;;;;;1.87;1.73;;;7.00;99.90;;;;;;5031706;28;20270;-83
2022/02/20 08:17:16;;;;;;;2.70;2.13;;;7.20;99.90;;;;;;5039107;28;20290;-82
2022/02/20 08:19:42;;;;;;;2.57;2.03;;;7.20;99.90;;;;;;5055886;28;20267;-83
2022/02/20 08:22:08;;;;;;;4.30;2.63;;;7.30;99.90;;;;;;5021970;28;20366;-85
2022/02/20 08:24:33;;;;;;;5.50;2.97;;;7.40;99.90;;;;;;5036442;28;20210;-83
2022/02/20 08:26:59;;;;;;;3.70;2.73;;;7.50;99.90;;;;;;5064578;28;20260;-85
2022/02/20 08:29:25;;;;;;;10.70;4.57;;;7.70;99.90;;;;;;5052436;28;20749;-83
2022/02/20 08:31:51;;;;;;;1.83;1.73;;;7.90;99.90;;;;;;5054009;28;21038;-82
2022/02/20 08:34:17;;;;;;;5.07;2.03;;;8.10;99.90;;;;;;5039583;28;20233;-83
2022/02/20 08:36:43;;;;;;;0.87;0.87;;;8.20;99.90;;;;;;5055932;28;20209;-85
2022/02/20 08:39:10;;;;;;;2.70;1.60;;;8.40;99.90;;;;;;5065658;28;20217;-83
2022/02/20 08:41:36;;;;;;;3.33;1.60;;;8.50;99.90;;;;;;5064494;28;20209;-84
2022/02/20 08:44:03;;;;;;;1.40;0.30;;;8.70;99.90;;;;;;5024983;28;20669;-84
2022/02/20 08:46:28;;;;;;;2.83;1.07;;;8.90;99.90;;;;;;5066778;28;20263;-84
2022/02/20 08:48:54;;;;;;;2.77;2.00;;;9.00;99.90;;;;;;5050767;28;20304;-83
2022/02/20 08:51:20;;;;;;;8.90;0.93;;;9.20;99.90;;;;;;5053093;28;20697;-84
2022/02/20 08:53:47;;;;;;;3.90;1.63;;;9.20;99.90;;;;;;5038308;28;20259;-86
2022/02/20 08:56:13;;;;;;;5.00;1.23;;;9.30;99.90;;;;;;5036797;28;20235;-83
2022/02/20 08:58:39;;;;;;;1.30;0.60;;;9.30;99.90;;;;;;5037991;28;20700;-83
2022/02/20 09:01:05;;;;;;;1.83;1.63;;;9.40;99.90;;;;;;5054544;28;20217;-85
2022/02/20 09:03:32;;;;;;;5.33;2.60;;;9.40;99.90;;;;;;5064360;28;20221;-85
2022/02/20 09:05:58;;;;;;;4.27;2.60;;;9.50;99.90;;;;;;5054443;28;20569;-85
2022/02/20 09:08:24;;;;;;;6.00;2.53;;;9.50;99.90;;;;;;5066026;28;20177;-85
2022/02/20 09:10:49;;;;;;;4.70;1.73;;;9.50;99.90;;;;;;5055461;28;20200;-85
2022/02/20 09:13:16;;;;;;;1.43;1.20;;;9.60;99.90;;;;;;5064877;28;20698;-85
2022/02/20 09:15:42;;;;;;;1.60;1.37;;;9.60;99.90;;;;;;5053760;28;20257;-87
2022/02/20 09:18:08;;;;;;;2.57;1.67;;;9.60;99.90;;;;;;5065136;28;20544;-87
2022/02/20 09:20:34;;;;;;;13.00;1.80;;;9.70;99.90;;;;;;5056518;28;20761;-87
2022/02/20 09:23:00;;;;;;;7.13;1.57;;;9.70;99.90;;;;;;5065407;28;20197;-86
2022/02/20 09:25:26;;;;;;;3.93;1.67;;;9.80;99.90;;;;;;5055217;28;20581;-85
2022/02/20 09:27:52;;;;;;;3.53;1.97;;;9.80;99.90;;;;;;5065652;28;20213;-87
2022/02/20 09:30:18;;;;;;;1.77;1.60;;;9.80;99.90;;;;;;5049602;28;21081;-86
2022/02/20 09:32:45;;;;;;;12.57;2.07;;;9.70;99.90;;;;;;5062028;28;20862;-86
2022/02/20 09:35:11;;;;;;;13.33;1.73;;;9.80;99.90;;;;;;5062628;28;20229;-88
2022/02/20 09:37:37;;;;;;;2.43;0.83;;;9.80;99.90;;;;;;5052797;28;20200;-84
2022/02/20 09:40:04;;;;;;;4.77;1.77;;;9.90;99.90;;;;;;5053339;28;20245;-86
2022/02/20 09:42:30;;;;;;;7.63;1.60;;;9.90;99.90;;;;;;5050648;28;20616;-85
2022/02/20 09:44:56;;;;;;;0.87;0.73;;;9.90;99.90;;;;;;5051521;28;20241;-86
2022/02/20 09:47:27;;;;;;;8.73;1.87;;;9.90;99.90;;;;;;5051056;28;20193;-85
2022/02/20 09:49:57;;;;;;;3.43;1.87;;;10.00;99.90;;;;;;5052844;28;20181;-86
2022/02/20 09:52:23;;;;;;;2.10;0.93;;;10.00;99.90;;;;;;5061187;28;20271;-86
2022/02/20 09:54:49;;;;;;;2.47;0.63;;;10.10;99.90;;;;;;5049325;28;20217;-85
2022/02/20 09:57:14;;;;;;;1.53;0.90;;;10.10;99.90;;;;;;5051055;28;20217;-87
2022/02/20 09:59:40;;;;;;;8.17;2.13;;;10.20;99.90;;;;;;5050662;28;20682;-85
2022/02/20 10:02:08;;;;;;;4.20;1.07;;;10.20;99.90;;;;;;5062368;28;20308;-87
2022/02/20 10:04:49;;;;;;;9.63;0.93;;;10.20;99.90;;;;;;5054094;28;20262;-86
2022/02/20 10:07:26;;;;;;;9.90;2.50;;;10.20;99.90;;;;;;5059069;28;20319;-88
2022/02/20 10:09:53;;;;;;;5.10;2.67;;;10.20;99.90;;;;;;5053619;28;20386;-86
2022/02/20 10:12:27;;;;;;;4.20;1.63;;;10.30;99.90;;;;;;5061819;28;20267;-86
2022/02/20 10:14:53;;;;;;;8.23;3.27;;;10.30;99.90;;;;;;5052635;28;20686;-86
2022/02/20 10:17:25;;;;;;;4.73;1.43;;;10.30;99.90;;;;;;5054612;28;20209;-87
2022/02/20 10:19:54;;;;;;;8.83;1.60;;;10.30;99.90;;;;;;5038649;28;20618;-87
2022/02/20 10:22:34;;;;;;;8.50;2.47;;;10.40;99.90;;;;;;5064850;28;20225;-86
2022/02/20 10:25:13;;;;;;;4.23;1.83;;;10.40;99.90;;;;;;5064791;28;20213;-87
2022/02/20 10:27:53;;;;;;;4.50;1.27;;;10.40;99.90;;;;;;5049780;28;20246;-85
2022/02/20 10:30:20;;;;;;;4.37;0.73;;;10.40;99.90;;;;;;5057943;28;20225;-86
2022/02/20 10:33:02;;;;;;;2.53;2.33;;;10.50;99.90;;;;;;5067865;28;20248;-88
2022/02/20 10:35:33;;;;;;;3.50;2.10;;;10.40;99.90;;;;;;5068780;28;20258;-86
2022/02/20 10:37:59;;;;;;;7.70;1.03;;;10.50;99.90;;;;;;5057840;28;20787;-85
2022/02/20 10:40:30;;;;;;;3.73;1.73;;;10.50;99.90;;;;;;5054271;28;21309;-85
2022/02/20 10:42:59;;;;;;;4.10;1.37;;;10.50;99.90;;;;;;5064531;28;20217;-86
2022/02/20 10:45:28;;;;;;;1.50;1.23;;;10.50;99.90;;;;;;5057545;28;20712;-85
2022/02/20 10:47:55;;;;;;;10.23;1.40;;;10.60;99.90;;;;;;5068048;28;20233;-85
2022/02/20 10:50:24;;;;;;;1.30;0.93;;;10.60;99.90;;;;;;5068612;28;20204;-85
2022/02/20 10:53:18;;;;;;;3.30;1.30;;;10.60;99.90;;;;;;5059115;28;20220;-85
2022/02/20 10:55:45;;;;;;;11.67;3.17;;;10.60;99.90;;;;;;5068443;28;20297;-85
2022/02/20 10:58:16;;;;;;;18.90;2.73;;;10.60;99.90;;;;;;5067664;28;20585;-85
2022/02/20 11:00:47;;;;;;;2.53;1.70;;;10.60;99.90;;;;;;5067609;28;20308;-86
2022/02/20 11:03:13;;;;;;;16.60;3.80;;;10.60;99.90;;;;;;5068120;28;20278;-85
2022/02/20 11:05:40;;;;;;;2.73;0.83;;;10.60;99.90;;;;;;5057460;28;20220;-86
2022/02/20 11:08:07;;;;;;;2.87;1.03;;;10.60;99.90;;;;;;5067895;28;20296;-85
2022/02/20 11:10:34;;;;;;;12.90;2.43;;;10.60;99.90;;;;;;5068674;28;20200;-86
2022/02/20 11:13:01;;;;;;;15.63;2.20;;;10.60;99.90;;;;;;5049427;28;20236;-85
2022/02/20 11:15:27;;;;;;;7.20;1.70;;;10.60;99.90;;;;;;5057260;28;20304;-88
2022/02/20 11:18:00;;;;;;;10.93;1.60;;;10.60;99.90;;;;;;5057342;28;20217;-87
2022/02/20 11:20:29;;;;;;;12.87;2.93;;;10.60;99.90;;;;;;5067666;28;20296;-86
2022/02/20 11:22:58;;;;;;;4.10;1.33;;;10.60;99.90;;;;;;5057811;28;20201;-86
2022/02/20 11:25:25;;;;;;;10.37;2.17;;;10.60;99.90;;;;;;5058558;28;20217;-86
2022/02/20 11:27:52;;;;;;;6.40;1.83;;;10.60;99.90;;;;;;5067943;28;20221;-86
2022/02/20 11:30:18;;;;;;;3.47;1.90;;;10.70;99.90;;;;;;5067729;28;21079;-86
2022/02/20 11:32:46;;;;;;;8.63;2.57;;;10.60;99.90;;;;;;5056656;28;20233;-84
2022/02/20 11:35:13;;;;;;;2.97;1.10;;;10.70;99.90;;;;;;5067035;28;20797;-86
2022/02/20 11:37:52;;;;;;;12.50;3.03;;;10.60;99.90;;;;;;5067347;28;20206;-87
2022/02/20 11:40:20;;;;;;;3.43;1.60;;;10.70;99.90;;;;;;5066608;28;20247;-86
2022/02/20 11:42:58;;;;;;;3.90;2.27;;;10.70;99.90;;;;;;5067186;28;20634;-87
2022/02/20 11:45:26;;;;;;;4.83;1.27;;;10.70;99.90;;;;;;5067414;28;20248;-86
2022/02/20 11:48:10;;;;;;;9.53;2.03;;;10.70;99.90;;;;;;5056568;28;20225;-88
2022/02/20 11:50:42;;;;;;;12.83;2.57;;;10.70;99.90;;;;;;5057557;28;20220;-89
2022/02/20 11:53:12;;;;;;;17.30;1.93;;;10.60;99.90;;;;;;5042048;28;20233;-87
2022/02/20 11:55:43;;;;;;;7.73;3.73;;;10.60;99.90;;;;;;5041317;28;20189;-88
2022/02/20 11:58:13;;;;;;;6.90;2.70;;;10.60;99.90;;;;;;5058315;28;20581;-85
2022/02/20 12:00:59;;;;;;;7.40;2.57;;;10.50;99.90;;;;;;5055922;28;20221;-87
2022/02/20 12:03:30;;;;;;;4.17;2.67;;;10.50;99.90;;;;;;5046425;28;20225;-86
2022/02/20 12:06:14;;;;;;;3.27;1.33;;;10.50;99.90;;;;;;5058616;28;20209;-88
2022/02/20 12:08:58;;;;;;;5.57;3.73;;;10.50;99.90;;;;;;5056298;28;20239;-87
2022/02/20 12:11:39;;;;;;;19.73;3.37;;;10.50;99.90;;;;;;5051288;28;20186;-88
2022/02/20 12:14:20;;;;;;;3.30;2.00;;;10.50;99.90;;;;;;5062106;28;20582;-86
2022/02/20 12:17:01;;;;;;;4.83;2.57;;;10.50;99.90;;;;;;5063338;28;20990;-86
2022/02/20 12:19:39;;;;;;;11.97;4.30;;;10.50;99.90;;;;;;5064373;28;20223;-83
2022/02/20 12:22:25;;;;;;;10.53;4.00;;;10.50;99.90;;;;;;5060681;28;20232;-82
2022/02/20 12:24:56;;;;;;;5.33;4.27;;;10.50;99.90;;;;;;5061932;28;20229;-84
2022/02/20 12:27:26;;;;;;;8.37;1.97;;;10.60;99.90;;;;;;5051473;28;20225;-82
2022/02/20 12:30:03;;;;;;;11.37;3.10;;;10.60;99.90;;;;;;5053331;28;20221;-84
2022/02/20 12:32:30;;;;;;;8.57;3.13;;;10.70;99.90;;;;;;5064209;28;20240;-84
2022/02/20 12:35:15;;;;;;;14.23;2.53;;;10.80;99.90;;;;;;5064209;28;20217;-83
2022/02/20 12:37:44;;;;;;;10.77;3.93;;;10.90;99.90;;;;;;5064309;28;20233;-83
2022/02/20 12:40:17;;;;;;;16.53;5.23;;;10.90;99.90;;;;;;5053942;28;20225;-83
2022/02/20 12:42:57;;;;;;;3.43;1.73;;;10.90;99.90;;;;;;5052453;28;20221;-83
2022/02/20 12:45:29;;;;;;;3.00;1.00;;;10.90;99.90;;;;;;5051155;28;20215;-85
2022/02/20 12:47:57;;;;;;;18.63;2.80;;;10.90;99.90;;;;;;5061924;28;20241;-83
2022/02/20 12:50:26;;;;;;;1.77;0.97;;;10.90;99.90;;;;;;5063357;28;20723;-84
2022/02/20 12:52:53;;;;;;;11.07;2.73;;;10.90;99.90;;;;;;5052016;28;20201;-85
2022/02/20 12:55:20;;;;;;;7.90;2.93;;;10.90;99.90;;;;;;5064574;28;20248;-84